sensor_id;sensor_type;location;lat;lon;timestamp;P1;durP1;ratioP1;P2;durP2;ratioP2
20236;SDS011;10277;54.386;18.596;2022-11-20T00:03:35;43.57;;;23.47;;
20236;SDS011;10277;54.386;18.596;2022-11-20T00:08:38;48.47;;;23.20;;
20236;SDS011;10277;54.386;18.596;2022-11-20T00:13:46;44.47;;;22.63;;
20236;SDS011;10277;54.386;18.596;2022-11-20T00:18:50;49.80;;;24.93;;
20236;SDS011;10277;54.386;18.596;2022-11-20T00:23:55;44.17;;;24.47;;
20236;SDS011;10277;54.386;18.596;2022-11-20T00:28:59;46.13;;;25.23;;
20236;SDS011;10277;54.386;18.596;2022-11-20T00:34:03;43.73;;;23.13;;
20236;SDS011;10277;54.386;18.596;2022-11-20T00:39:06;44.70;;;24.17;;
20236;SDS011;10277;54.386;18.596;2022-11-20T00:44:09;43.33;;;22.97;;
20236;SDS011;10277;54.386;18.596;2022-11-20T00:49:12;43.50;;;23.60;;
20236;SDS011;10277;54.386;18.596;2022-11-20T00:54:15;47.53;;;22.67;;
20236;SDS011;10277;54.386;18.596;2022-11-20T00:59:18;44.00;;;24.20;;
20236;SDS011;10277;54.386;18.596;2022-11-20T01:04:23;46.07;;;24.50;;
20236;SDS011;10277;54.386;18.596;2022-11-20T01:09:26;45.40;;;24.10;;
20236;SDS011;10277;54.386;18.596;2022-11-20T01:14:30;42.37;;;22.87;;
20236;SDS011;10277;54.386;18.596;2022-11-20T01:19:33;44.80;;;23.67;;
20236;SDS011;10277;54.386;18.596;2022-11-20T01:24:36;42.47;;;21.37;;
20236;SDS011;10277;54.386;18.596;2022-11-20T01:29:40;42.23;;;22.43;;
20236;SDS011;10277;54.386;18.596;2022-11-20T01:34:43;45.37;;;23.93;;
20236;SDS011;10277;54.386;18.596;2022-11-20T01:39:45;44.67;;;23.73;;
20236;SDS011;10277;54.386;18.596;2022-11-20T01:50:00;40.83;;;21.90;;
20236;SDS011;10277;54.386;18.596;2022-11-20T01:55:15;39.17;;;21.20;;
20236;SDS011;10277;54.386;18.596;2022-11-20T02:00:21;42.40;;;21.87;;
20236;SDS011;10277;54.386;18.596;2022-11-20T02:05:44;41.07;;;21.73;;
20236;SDS011;10277;54.386;18.596;2022-11-20T02:10:50;41.60;;;21.87;;
20236;SDS011;10277;54.386;18.596;2022-11-20T02:15:53;40.73;;;22.50;;
20236;SDS011;10277;54.386;18.596;2022-11-20T02:20:58;39.30;;;22.33;;
20236;SDS011;10277;54.386;18.596;2022-11-20T02:26:08;39.87;;;21.23;;
20236;SDS011;10277;54.386;18.596;2022-11-20T02:31:14;45.13;;;23.23;;
20236;SDS011;10277;54.386;18.596;2022-11-20T02:36:17;42.37;;;21.43;;
20236;SDS011;10277;54.386;18.596;2022-11-20T02:41:20;39.07;;;20.10;;
20236;SDS011;10277;54.386;18.596;2022-11-20T02:46:23;43.37;;;23.37;;
20236;SDS011;10277;54.386;18.596;2022-11-20T02:51:26;41.43;;;21.57;;
20236;SDS011;10277;54.386;18.596;2022-11-20T02:56:30;40.80;;;21.33;;
20236;SDS011;10277;54.386;18.596;2022-11-20T03:01:33;43.47;;;23.10;;
20236;SDS011;10277;54.386;18.596;2022-11-20T03:06:36;41.33;;;22.87;;
20236;SDS011;10277;54.386;18.596;2022-11-20T03:11:39;42.73;;;20.80;;
20236;SDS011;10277;54.386;18.596;2022-11-20T03:16:42;41.10;;;21.97;;
20236;SDS011;10277;54.386;18.596;2022-11-20T03:21:45;36.90;;;20.23;;
20236;SDS011;10277;54.386;18.596;2022-11-20T03:26:48;43.77;;;23.10;;
20236;SDS011;10277;54.386;18.596;2022-11-20T03:31:52;43.20;;;21.77;;
20236;SDS011;10277;54.386;18.596;2022-11-20T03:36:55;39.67;;;22.17;;
20236;SDS011;10277;54.386;18.596;2022-11-20T03:41:58;40.23;;;21.20;;
20236;SDS011;10277;54.386;18.596;2022-11-20T03:47:01;43.60;;;22.27;;
20236;SDS011;10277;54.386;18.596;2022-11-20T03:52:03;44.07;;;23.13;;
20236;SDS011;10277;54.386;18.596;2022-11-20T03:57:06;39.67;;;21.40;;
20236;SDS011;10277;54.386;18.596;2022-11-20T04:02:09;43.30;;;22.83;;
20236;SDS011;10277;54.386;18.596;2022-11-20T04:07:13;40.20;;;20.87;;
20236;SDS011;10277;54.386;18.596;2022-11-20T04:12:16;45.10;;;22.97;;
20236;SDS011;10277;54.386;18.596;2022-11-20T04:17:19;39.83;;;22.33;;
20236;SDS011;10277;54.386;18.596;2022-11-20T04:22:22;44.57;;;23.13;;
20236;SDS011;10277;54.386;18.596;2022-11-20T04:27:26;44.83;;;23.73;;
20236;SDS011;10277;54.386;18.596;2022-11-20T04:32:29;45.70;;;22.53;;
20236;SDS011;10277;54.386;18.596;2022-11-20T04:37:32;39.50;;;22.53;;
20236;SDS011;10277;54.386;18.596;2022-11-20T04:42:35;44.83;;;24.07;;
20236;SDS011;10277;54.386;18.596;2022-11-20T04:47:38;44.93;;;23.10;;
20236;SDS011;10277;54.386;18.596;2022-11-20T04:52:41;46.73;;;24.60;;
20236;SDS011;10277;54.386;18.596;2022-11-20T04:57:45;45.90;;;23.27;;
20236;SDS011;10277;54.386;18.596;2022-11-20T05:02:48;47.53;;;23.70;;
20236;SDS011;10277;54.386;18.596;2022-11-20T05:07:51;43.63;;;23.13;;
20236;SDS011;10277;54.386;18.596;2022-11-20T05:12:54;46.03;;;23.60;;
20236;SDS011;10277;54.386;18.596;2022-11-20T05:17:57;47.57;;;24.00;;
20236;SDS011;10277;54.386;18.596;2022-11-20T05:23:00;48.27;;;24.47;;
20236;SDS011;10277;54.386;18.596;2022-11-20T05:28:05;51.13;;;26.07;;
20236;SDS011;10277;54.386;18.596;2022-11-20T05:33:09;52.03;;;24.53;;
20236;SDS011;10277;54.386;18.596;2022-11-20T05:38:12;45.80;;;22.97;;
20236;SDS011;10277;54.386;18.596;2022-11-20T05:43:15;45.97;;;23.93;;
20236;SDS011;10277;54.386;18.596;2022-11-20T05:48:18;49.37;;;25.03;;
20236;SDS011;10277;54.386;18.596;2022-11-20T05:53:21;48.83;;;24.97;;
20236;SDS011;10277;54.386;18.596;2022-11-20T05:58:24;47.77;;;24.87;;
20236;SDS011;10277;54.386;18.596;2022-11-20T06:03:27;50.43;;;24.93;;
20236;SDS011;10277;54.386;18.596;2022-11-20T06:08:30;60.50;;;29.43;;
20236;SDS011;10277;54.386;18.596;2022-11-20T06:13:33;51.27;;;24.57;;
20236;SDS011;10277;54.386;18.596;2022-11-20T06:18:43;52.90;;;24.67;;
20236;SDS011;10277;54.386;18.596;2022-11-20T06:23:46;50.40;;;23.37;;
20236;SDS011;10277;54.386;18.596;2022-11-20T06:28:49;52.70;;;23.40;;
20236;SDS011;10277;54.386;18.596;2022-11-20T06:33:52;47.40;;;22.00;;
20236;SDS011;10277;54.386;18.596;2022-11-20T06:38:55;47.67;;;22.93;;
20236;SDS011;10277;54.386;18.596;2022-11-20T06:43:58;49.53;;;23.03;;
20236;SDS011;10277;54.386;18.596;2022-11-20T06:49:01;57.67;;;27.37;;
20236;SDS011;10277;54.386;18.596;2022-11-20T06:54:04;56.17;;;25.53;;
20236;SDS011;10277;54.386;18.596;2022-11-20T06:59:07;60.87;;;26.30;;
20236;SDS011;10277;54.386;18.596;2022-11-20T07:04:10;56.47;;;24.83;;
20236;SDS011;10277;54.386;18.596;2022-11-20T07:09:13;55.70;;;24.27;;
20236;SDS011;10277;54.386;18.596;2022-11-20T07:14:16;49.03;;;23.20;;
20236;SDS011;10277;54.386;18.596;2022-11-20T07:19:19;57.97;;;27.17;;
20236;SDS011;10277;54.386;18.596;2022-11-20T07:24:23;57.93;;;27.63;;
20236;SDS011;10277;54.386;18.596;2022-11-20T07:29:26;57.07;;;26.80;;
20236;SDS011;10277;54.386;18.596;2022-11-20T07:34:29;68.63;;;33.63;;
20236;SDS011;10277;54.386;18.596;2022-11-20T07:39:32;62.73;;;27.83;;
20236;SDS011;10277;54.386;18.596;2022-11-20T07:44:35;64.67;;;27.70;;
20236;SDS011;10277;54.386;18.596;2022-11-20T07:49:38;74.40;;;33.63;;
20236;SDS011;10277;54.386;18.596;2022-11-20T07:54:41;65.40;;;30.47;;
20236;SDS011;10277;54.386;18.596;2022-11-20T07:59:44;68.43;;;29.57;;
20236;SDS011;10277;54.386;18.596;2022-11-20T08:04:48;63.10;;;27.93;;
20236;SDS011;10277;54.386;18.596;2022-11-20T08:09:51;70.70;;;30.07;;
20236;SDS011;10277;54.386;18.596;2022-11-20T08:14:54;64.63;;;30.17;;
20236;SDS011;10277;54.386;18.596;2022-11-20T08:19:59;66.23;;;28.93;;
20236;SDS011;10277;54.386;18.596;2022-11-20T08:25:02;58.83;;;26.07;;
20236;SDS011;10277;54.386;18.596;2022-11-20T08:30:05;61.47;;;29.10;;
20236;SDS011;10277;54.386;18.596;2022-11-20T08:35:09;64.87;;;27.90;;
20236;SDS011;10277;54.386;18.596;2022-11-20T08:40:12;61.37;;;28.47;;
20236;SDS011;10277;54.386;18.596;2022-11-20T08:45:21;69.20;;;32.17;;
20236;SDS011;10277;54.386;18.596;2022-11-20T08:50:23;60.70;;;28.63;;
20236;SDS011;10277;54.386;18.596;2022-11-20T08:55:29;67.83;;;32.37;;
20236;SDS011;10277;54.386;18.596;2022-11-20T09:00:32;65.47;;;30.67;;
20236;SDS011;10277;54.386;18.596;2022-11-20T09:05:36;69.53;;;33.40;;
20236;SDS011;10277;54.386;18.596;2022-11-20T09:10:39;66.97;;;31.27;;
20236;SDS011;10277;54.386;18.596;2022-11-20T09:15:42;63.90;;;30.80;;
20236;SDS011;10277;54.386;18.596;2022-11-20T09:20:46;65.77;;;32.07;;
20236;SDS011;10277;54.386;18.596;2022-11-20T09:25:49;65.73;;;29.10;;
20236;SDS011;10277;54.386;18.596;2022-11-20T09:30:52;86.03;;;38.63;;
20236;SDS011;10277;54.386;18.596;2022-11-20T09:35:55;96.50;;;43.47;;
20236;SDS011;10277;54.386;18.596;2022-11-20T09:41:03;81.60;;;35.37;;
20236;SDS011;10277;54.386;18.596;2022-11-20T09:56:45;66.40;;;29.30;;
20236;SDS011;10277;54.386;18.596;2022-11-20T10:01:53;80.20;;;32.80;;
20236;SDS011;10277;54.386;18.596;2022-11-20T10:07:13;89.20;;;38.60;;
20236;SDS011;10277;54.386;18.596;2022-11-20T10:28:34;85.30;;;36.13;;
20236;SDS011;10277;54.386;18.596;2022-11-20T10:33:43;79.47;;;39.00;;
20236;SDS011;10277;54.386;18.596;2022-11-20T10:39:14;81.17;;;36.13;;
20236;SDS011;10277;54.386;18.596;2022-11-20T10:44:26;80.83;;;37.57;;
20236;SDS011;10277;54.386;18.596;2022-11-20T10:49:50;93.07;;;40.07;;
20236;SDS011;10277;54.386;18.596;2022-11-20T11:00:36;91.00;;;39.43;;
20236;SDS011;10277;54.386;18.596;2022-11-20T11:05:40;89.10;;;40.87;;
20236;SDS011;10277;54.386;18.596;2022-11-20T11:15:59;80.53;;;36.30;;
20236;SDS011;10277;54.386;18.596;2022-11-20T11:21:04;73.23;;;35.33;;
20236;SDS011;10277;54.386;18.596;2022-11-20T11:26:24;70.87;;;33.87;;
20236;SDS011;10277;54.386;18.596;2022-11-20T11:31:32;80.20;;;38.20;;
20236;SDS011;10277;54.386;18.596;2022-11-20T11:36:36;88.83;;;38.60;;
20236;SDS011;10277;54.386;18.596;2022-11-20T11:41:41;82.13;;;38.30;;
20236;SDS011;10277;54.386;18.596;2022-11-20T11:46:53;78.77;;;36.57;;
20236;SDS011;10277;54.386;18.596;2022-11-20T11:57:20;89.40;;;42.10;;
20236;SDS011;10277;54.386;18.596;2022-11-20T12:08:03;101.07;;;49.23;;
20236;SDS011;10277;54.386;18.596;2022-11-20T12:18:29;78.67;;;39.93;;
20236;SDS011;10277;54.386;18.596;2022-11-20T12:23:40;75.03;;;36.57;;
20236;SDS011;10277;54.386;18.596;2022-11-20T12:56:05;90.17;;;42.27;;
20236;SDS011;10277;54.386;18.596;2022-11-20T13:01:30;81.47;;;37.40;;
20236;SDS011;10277;54.386;18.596;2022-11-20T13:06:50;79.70;;;37.77;;
20236;SDS011;10277;54.386;18.596;2022-11-20T13:17:31;76.57;;;37.17;;
20236;SDS011;10277;54.386;18.596;2022-11-20T13:27:49;90.50;;;49.27;;
20236;SDS011;10277;54.386;18.596;2022-11-20T13:38:14;75.23;;;36.63;;
20236;SDS011;10277;54.386;18.596;2022-11-20T13:48:45;76.77;;;37.73;;
20236;SDS011;10277;54.386;18.596;2022-11-20T14:04:33;89.33;;;42.90;;
20236;SDS011;10277;54.386;18.596;2022-11-20T14:09:36;95.93;;;47.67;;
20236;SDS011;10277;54.386;18.596;2022-11-20T14:14:46;90.00;;;44.23;;
20236;SDS011;10277;54.386;18.596;2022-11-20T14:19:54;81.33;;;39.47;;
20236;SDS011;10277;54.386;18.596;2022-11-20T14:25:02;82.47;;;38.37;;
20236;SDS011;10277;54.386;18.596;2022-11-20T14:30:17;83.10;;;38.57;;
20236;SDS011;10277;54.386;18.596;2022-11-20T14:40:33;80.07;;;40.57;;
20236;SDS011;10277;54.386;18.596;2022-11-20T14:45:40;83.33;;;39.67;;
20236;SDS011;10277;54.386;18.596;2022-11-20T14:50:43;78.83;;;37.23;;
20236;SDS011;10277;54.386;18.596;2022-11-20T14:55:53;80.13;;;38.77;;
20236;SDS011;10277;54.386;18.596;2022-11-20T15:01:02;80.33;;;38.27;;
20236;SDS011;10277;54.386;18.596;2022-11-20T15:06:09;77.63;;;38.27;;
20236;SDS011;10277;54.386;18.596;2022-11-20T15:11:22;80.80;;;41.27;;
20236;SDS011;10277;54.386;18.596;2022-11-20T15:16:28;83.93;;;41.57;;
20236;SDS011;10277;54.386;18.596;2022-11-20T15:21:32;73.80;;;37.10;;
20236;SDS011;10277;54.386;18.596;2022-11-20T15:26:35;76.80;;;37.20;;
20236;SDS011;10277;54.386;18.596;2022-11-20T15:31:40;90.33;;;42.70;;
20236;SDS011;10277;54.386;18.596;2022-11-20T15:36:46;77.40;;;38.97;;
20236;SDS011;10277;54.386;18.596;2022-11-20T15:41:48;80.23;;;37.67;;
20236;SDS011;10277;54.386;18.596;2022-11-20T15:46:52;84.57;;;40.80;;
20236;SDS011;10277;54.386;18.596;2022-11-20T15:51:55;87.93;;;41.70;;
20236;SDS011;10277;54.386;18.596;2022-11-20T15:56:58;85.73;;;41.30;;
20236;SDS011;10277;54.386;18.596;2022-11-20T16:02:05;87.10;;;41.53;;
20236;SDS011;10277;54.386;18.596;2022-11-20T16:07:19;84.43;;;40.00;;
20236;SDS011;10277;54.386;18.596;2022-11-20T16:12:21;90.93;;;43.40;;
20236;SDS011;10277;54.386;18.596;2022-11-20T16:17:43;95.00;;;43.27;;
20236;SDS011;10277;54.386;18.596;2022-11-20T16:22:46;105.70;;;49.37;;
20236;SDS011;10277;54.386;18.596;2022-11-20T16:27:49;100.13;;;45.83;;
20236;SDS011;10277;54.386;18.596;2022-11-20T16:32:51;101.10;;;48.50;;
20236;SDS011;10277;54.386;18.596;2022-11-20T16:37:55;100.70;;;46.30;;
20236;SDS011;10277;54.386;18.596;2022-11-20T16:43:06;96.83;;;46.77;;
20236;SDS011;10277;54.386;18.596;2022-11-20T16:48:12;90.20;;;43.57;;
20236;SDS011;10277;54.386;18.596;2022-11-20T16:53:16;104.03;;;47.23;;
20236;SDS011;10277;54.386;18.596;2022-11-20T16:58:20;94.63;;;44.63;;
20236;SDS011;10277;54.386;18.596;2022-11-20T17:03:23;101.90;;;49.23;;
20236;SDS011;10277;54.386;18.596;2022-11-20T17:08:27;107.17;;;50.43;;
20236;SDS011;10277;54.386;18.596;2022-11-20T17:13:32;110.10;;;51.60;;
20236;SDS011;10277;54.386;18.596;2022-11-20T17:18:41;107.10;;;49.73;;
20236;SDS011;10277;54.386;18.596;2022-11-20T17:23:44;130.30;;;69.00;;
20236;SDS011;10277;54.386;18.596;2022-11-20T17:28:52;118.07;;;59.23;;
20236;SDS011;10277;54.386;18.596;2022-11-20T17:33:56;114.83;;;52.10;;
20236;SDS011;10277;54.386;18.596;2022-11-20T17:39:01;110.93;;;50.70;;
20236;SDS011;10277;54.386;18.596;2022-11-20T17:44:05;138.03;;;62.53;;
20236;SDS011;10277;54.386;18.596;2022-11-20T17:49:08;120.47;;;60.73;;
20236;SDS011;10277;54.386;18.596;2022-11-20T17:54:11;114.43;;;57.47;;
20236;SDS011;10277;54.386;18.596;2022-11-20T17:59:14;106.73;;;49.17;;
20236;SDS011;10277;54.386;18.596;2022-11-20T18:04:17;103.43;;;48.40;;
20236;SDS011;10277;54.386;18.596;2022-11-20T18:09:20;98.93;;;48.67;;
20236;SDS011;10277;54.386;18.596;2022-11-20T18:14:24;102.80;;;49.27;;
20236;SDS011;10277;54.386;18.596;2022-11-20T18:19:42;113.70;;;51.63;;
20236;SDS011;10277;54.386;18.596;2022-11-20T18:25:07;114.50;;;54.33;;
20236;SDS011;10277;54.386;18.596;2022-11-20T18:30:10;114.40;;;56.30;;
20236;SDS011;10277;54.386;18.596;2022-11-20T18:35:14;109.83;;;50.23;;
20236;SDS011;10277;54.386;18.596;2022-11-20T18:40:17;112.50;;;52.50;;
20236;SDS011;10277;54.386;18.596;2022-11-20T18:45:21;118.17;;;53.63;;
20236;SDS011;10277;54.386;18.596;2022-11-20T18:51:37;120.83;;;56.90;;
20236;SDS011;10277;54.386;18.596;2022-11-20T18:56:41;106.70;;;52.57;;
20236;SDS011;10277;54.386;18.596;2022-11-20T19:01:45;115.00;;;53.23;;
20236;SDS011;10277;54.386;18.596;2022-11-20T19:06:48;117.27;;;53.67;;
20236;SDS011;10277;54.386;18.596;2022-11-20T19:11:54;104.87;;;50.17;;
20236;SDS011;10277;54.386;18.596;2022-11-20T19:16:57;103.23;;;52.33;;
20236;SDS011;10277;54.386;18.596;2022-11-20T19:22:00;119.20;;;57.87;;
20236;SDS011;10277;54.386;18.596;2022-11-20T19:27:03;110.60;;;53.13;;
20236;SDS011;10277;54.386;18.596;2022-11-20T19:32:06;116.73;;;54.17;;
20236;SDS011;10277;54.386;18.596;2022-11-20T19:37:09;117.20;;;56.10;;
20236;SDS011;10277;54.386;18.596;2022-11-20T19:42:12;117.43;;;55.97;;
20236;SDS011;10277;54.386;18.596;2022-11-20T19:47:16;112.60;;;51.80;;
20236;SDS011;10277;54.386;18.596;2022-11-20T19:52:19;126.60;;;56.13;;
20236;SDS011;10277;54.386;18.596;2022-11-20T19:57:21;128.77;;;58.30;;
20236;SDS011;10277;54.386;18.596;2022-11-20T20:02:25;107.60;;;51.70;;
20236;SDS011;10277;54.386;18.596;2022-11-20T20:07:28;106.47;;;49.83;;
20236;SDS011;10277;54.386;18.596;2022-11-20T20:12:31;109.30;;;51.97;;
20236;SDS011;10277;54.386;18.596;2022-11-20T20:17:34;119.07;;;55.33;;
20236;SDS011;10277;54.386;18.596;2022-11-20T20:22:38;129.90;;;58.33;;
20236;SDS011;10277;54.386;18.596;2022-11-20T20:27:42;118.37;;;59.90;;
20236;SDS011;10277;54.386;18.596;2022-11-20T20:32:45;107.40;;;53.63;;
20236;SDS011;10277;54.386;18.596;2022-11-20T20:37:56;110.33;;;52.40;;
20236;SDS011;10277;54.386;18.596;2022-11-20T20:42:59;104.27;;;51.77;;
20236;SDS011;10277;54.386;18.596;2022-11-20T20:48:03;101.60;;;50.53;;
20236;SDS011;10277;54.386;18.596;2022-11-20T20:53:06;109.03;;;50.37;;
20236;SDS011;10277;54.386;18.596;2022-11-20T20:58:09;94.50;;;48.53;;
20236;SDS011;10277;54.386;18.596;2022-11-20T21:03:12;99.40;;;49.70;;
20236;SDS011;10277;54.386;18.596;2022-11-20T21:08:15;105.47;;;49.50;;
20236;SDS011;10277;54.386;18.596;2022-11-20T21:13:24;102.50;;;48.03;;
20236;SDS011;10277;54.386;18.596;2022-11-20T21:18:27;103.43;;;47.83;;
20236;SDS011;10277;54.386;18.596;2022-11-20T21:23:30;98.27;;;47.87;;
20236;SDS011;10277;54.386;18.596;2022-11-20T21:28:34;91.93;;;46.47;;
20236;SDS011;10277;54.386;18.596;2022-11-20T21:33:39;105.37;;;49.87;;
20236;SDS011;10277;54.386;18.596;2022-11-20T21:38:47;101.60;;;47.70;;
20236;SDS011;10277;54.386;18.596;2022-11-20T21:43:51;95.00;;;46.13;;
20236;SDS011;10277;54.386;18.596;2022-11-20T21:49:14;107.67;;;50.73;;
20236;SDS011;10277;54.386;18.596;2022-11-20T21:54:19;97.60;;;50.83;;
20236;SDS011;10277;54.386;18.596;2022-11-20T21:59:22;88.50;;;46.70;;
20236;SDS011;10277;54.386;18.596;2022-11-20T22:04:25;82.30;;;43.17;;
20236;SDS011;10277;54.386;18.596;2022-11-20T22:09:28;68.77;;;35.40;;
20236;SDS011;10277;54.386;18.596;2022-11-20T22:14:31;66.93;;;35.30;;
20236;SDS011;10277;54.386;18.596;2022-11-20T22:19:34;67.53;;;36.20;;
20236;SDS011;10277;54.386;18.596;2022-11-20T22:24:37;62.07;;;32.47;;
20236;SDS011;10277;54.386;18.596;2022-11-20T22:29:40;58.47;;;31.50;;
20236;SDS011;10277;54.386;18.596;2022-11-20T22:34:43;57.63;;;31.93;;
20236;SDS011;10277;54.386;18.596;2022-11-20T22:39:46;51.87;;;27.93;;
20236;SDS011;10277;54.386;18.596;2022-11-20T22:44:49;51.30;;;28.27;;
20236;SDS011;10277;54.386;18.596;2022-11-20T22:49:52;50.67;;;27.87;;
20236;SDS011;10277;54.386;18.596;2022-11-20T22:54:55;49.27;;;27.73;;
20236;SDS011;10277;54.386;18.596;2022-11-20T22:59:58;48.37;;;25.73;;
20236;SDS011;10277;54.386;18.596;2022-11-20T23:05:02;45.87;;;25.60;;
20236;SDS011;10277;54.386;18.596;2022-11-20T23:10:05;46.87;;;26.13;;
20236;SDS011;10277;54.386;18.596;2022-11-20T23:15:08;46.40;;;24.73;;
20236;SDS011;10277;54.386;18.596;2022-11-20T23:20:12;43.73;;;24.13;;
20236;SDS011;10277;54.386;18.596;2022-11-20T23:25:14;41.53;;;22.63;;
20236;SDS011;10277;54.386;18.596;2022-11-20T23:30:17;45.80;;;24.70;;
20236;SDS011;10277;54.386;18.596;2022-11-20T23:35:20;45.73;;;25.13;;
20236;SDS011;10277;54.386;18.596;2022-11-20T23:40:23;41.70;;;23.77;;
20236;SDS011;10277;54.386;18.596;2022-11-20T23:45:26;43.97;;;23.60;;
20236;SDS011;10277;54.386;18.596;2022-11-20T23:50:29;41.53;;;23.50;;
20236;SDS011;10277;54.386;18.596;2022-11-20T23:55:32;36.77;;;21.47;;
